Time;durP1;ratioP1;P1;durP2;ratioP2;P2;SDS_P1;SDS_P2;PMS_P1;PMS_P2;Temp;Humidity;BMP_temperature;BMP_pressure;BME280_temperature;BME280_humidity;BME280_pressure;Samples;Min_cycle;Max_cycle;Signal;HPM_P1;HPM_P2
2022/11/14 00:00:21;;;;;;;32.90;24.67;;;;;;;;;;5070701;28;20709;-45
2022/11/14 00:02:48;;;;;;;32.67;24.87;;;;;;;;;;5070785;28;20215;-45
2022/11/14 00:05:15;;;;;;;34.00;23.67;;;;;;;;;;5073434;28;20235;-45
2022/11/14 00:07:41;;;;;;;33.23;25.03;;;;;;;;;;5074434;28;20270;-45
2022/11/14 00:10:07;;;;;;;32.53;24.83;;;;;;;;;;5074266;28;20211;-45
2022/11/14 00:12:33;;;;;;;32.17;24.33;;;;;;;;;;5073970;28;20203;-46
2022/11/14 00:14:59;;;;;;;26.90;21.77;;;;;;;;;;5074460;28;20255;-45
2022/11/14 00:17:25;;;;;;;34.47;25.60;;;;;;;;;;5074146;28;20219;-45
2022/11/14 00:19:53;;;;;;;32.03;22.93;;;;;;;;;;5074407;28;20206;-45
2022/11/14 00:22:19;;;;;;;30.13;23.80;;;;;;;;;;5073859;28;20674;-45
2022/11/14 00:24:45;;;;;;;32.87;24.07;;;;;;;;;;5074370;28;20191;-45
2022/11/14 00:27:11;;;;;;;33.20;25.13;;;;;;;;;;5074175;28;20241;-46
2022/11/14 00:29:37;;;;;;;33.17;24.40;;;;;;;;;;5074281;28;20203;-45
2022/11/14 00:32:04;;;;;;;31.07;23.63;;;;;;;;;;5074130;28;20200;-45
2022/11/14 00:34:30;;;;;;;34.07;24.13;;;;;;;;;;5072562;28;20216;-45
2022/11/14 00:36:57;;;;;;;33.77;24.63;;;;;;;;;;5074128;28;20223;-45
2022/11/14 00:39:23;;;;;;;36.60;24.87;;;;;;;;;;5073948;28;20195;-45
2022/11/14 00:41:49;;;;;;;37.20;26.70;;;;;;;;;;5074064;28;20233;-45
2022/11/14 00:44:15;;;;;;;36.50;24.73;;;;;;;;;;5073799;28;20218;-45
2022/11/14 00:46:41;;;;;;;39.33;26.83;;;;;;;;;;5073599;28;20207;-45
2022/11/14 00:49:07;;;;;;;40.90;27.13;;;;;;;;;;5070136;28;20243;-46
2022/11/14 00:51:33;;;;;;;38.80;27.10;;;;;;;;;;5073720;28;20199;-45
2022/11/14 00:54:01;;;;;;;37.37;27.67;;;;;;;;;;5073817;28;20311;-45
2022/11/14 00:56:27;;;;;;;39.23;26.33;;;;;;;;;;5073510;28;20204;-45
2022/11/14 00:58:53;;;;;;;38.97;27.07;;;;;;;;;;5073699;28;20840;-45
2022/11/14 01:01:19;;;;;;;38.60;27.27;;;;;;;;;;5073510;28;20231;-45
2022/11/14 01:03:47;;;;;;;37.63;27.80;;;;;;;;;;5073715;28;20196;-46
2022/11/14 01:06:14;;;;;;;38.97;26.77;;;;;;;;;;5073465;28;20294;-46
2022/11/14 01:08:40;;;;;;;38.70;26.10;;;;;;;;;;5073515;28;20227;-46
2022/11/14 01:11:10;;;;;;;38.10;25.97;;;;;;;;;;5073528;28;20199;-46
2022/11/14 01:13:37;;;;;;;32.97;24.87;;;;;;;;;;5073216;28;20638;-46
2022/11/14 01:16:03;;;;;;;34.80;25.70;;;;;;;;;;5068721;28;20206;-46
2022/11/14 01:18:29;;;;;;;35.27;25.07;;;;;;;;;;5073304;28;20654;-46
2022/11/14 01:20:55;;;;;;;35.63;25.67;;;;;;;;;;5072623;28;20206;-46
2022/11/14 01:23:21;;;;;;;36.63;24.90;;;;;;;;;;5073108;28;20282;-46
2022/11/14 01:25:47;;;;;;;36.20;25.40;;;;;;;;;;5073260;28;20238;-45
2022/11/14 01:28:16;;;;;;;35.00;25.60;;;;;;;;;;5073168;28;20257;-45
2022/11/14 01:30:42;;;;;;;36.20;26.93;;;;;;;;;;5073065;28;20235;-45
2022/11/14 01:33:08;;;;;;;39.07;26.50;;;;;;;;;;5072643;28;20269;-45
2022/11/14 01:35:35;;;;;;;37.70;26.73;;;;;;;;;;5072914;28;20199;-45
2022/11/14 01:38:01;;;;;;;38.57;25.33;;;;;;;;;;5072953;28;20198;-46
2022/11/14 01:40:28;;;;;;;34.90;25.83;;;;;;;;;;5072765;28;20626;-45
2022/11/14 01:43:12;;;;;;;37.20;25.93;;;;;;;;;;5072767;28;20195;-45
2022/11/14 01:45:51;;;;;;;33.87;24.63;;;;;;;;;;5072413;28;20275;-46
2022/11/14 01:48:19;;;;;;;31.77;24.10;;;;;;;;;;5072439;28;20238;-45
2022/11/14 01:50:45;;;;;;;33.73;24.77;;;;;;;;;;5072693;28;20199;-45
2022/11/14 01:53:11;;;;;;;32.60;24.20;;;;;;;;;;5072586;28;20336;-46
2022/11/14 01:55:37;;;;;;;33.17;24.17;;;;;;;;;;5072451;28;20195;-45
2022/11/14 01:58:03;;;;;;;32.03;24.23;;;;;;;;;;5072698;28;20200;-45
2022/11/14 02:00:29;;;;;;;35.53;25.07;;;;;;;;;;5072426;28;20218;-46
2022/11/14 02:02:56;;;;;;;30.73;23.50;;;;;;;;;;5072638;28;20195;-45
2022/11/14 02:05:23;;;;;;;32.77;23.87;;;;;;;;;;5072345;28;20200;-46
2022/11/14 02:07:49;;;;;;;34.60;24.27;;;;;;;;;;5072380;28;20257;-46
2022/11/14 02:10:16;;;;;;;32.20;23.87;;;;;;;;;;5071874;28;20281;-45
2022/11/14 02:12:42;;;;;;;31.47;23.43;;;;;;;;;;5072209;28;20226;-46
2022/11/14 02:15:09;;;;;;;30.70;22.23;;;;;;;;;;5072095;28;20235;-45
2022/11/14 02:17:35;;;;;;;30.13;23.10;;;;;;;;;;5072180;28;20540;-45
2022/11/14 02:20:14;;;;;;;31.47;22.97;;;;;;;;;;5072063;28;20206;-45
2022/11/14 02:22:41;;;;;;;30.30;23.40;;;;;;;;;;5072119;28;20253;-45
2022/11/14 02:25:07;;;;;;;25.73;20.30;;;;;;;;;;5072005;28;20760;-45
2022/11/14 02:27:34;;;;;;;31.00;24.10;;;;;;;;;;5069897;28;20199;-45
2022/11/14 02:30:03;;;;;;;34.53;24.50;;;;;;;;;;5072051;28;20278;-45
2022/11/14 02:32:29;;;;;;;30.93;23.63;;;;;;;;;;5071947;28;20199;-45
2022/11/14 02:34:55;;;;;;;31.67;23.30;;;;;;;;;;5071535;28;20628;-45
2022/11/14 02:37:22;;;;;;;34.70;25.43;;;;;;;;;;5071807;28;20202;-45
2022/11/14 02:39:48;;;;;;;31.00;23.93;;;;;;;;;;5071919;28;20242;-45
2022/11/14 02:42:14;;;;;;;33.07;25.33;;;;;;;;;;5071810;28;20215;-45
2022/11/14 02:44:40;;;;;;;32.53;25.00;;;;;;;;;;5071780;28;20219;-45
2022/11/14 02:47:06;;;;;;;32.33;24.73;;;;;;;;;;5071785;28;20686;-46
2022/11/14 02:49:32;;;;;;;34.17;23.87;;;;;;;;;;5071449;28;20271;-45
2022/11/14 02:51:58;;;;;;;32.97;23.10;;;;;;;;;;5071054;28;20282;-46
2022/11/14 02:54:26;;;;;;;29.13;21.57;;;;;;;;;;5069133;28;20243;-45
2022/11/14 02:56:52;;;;;;;34.80;25.07;;;;;;;;;;5071753;28;20234;-45
2022/11/14 02:59:18;;;;;;;31.50;22.97;;;;;;;;;;5071167;28;20245;-45
2022/11/14 03:01:44;;;;;;;32.13;24.70;;;;;;;;;;5070041;28;20257;-45
2022/11/14 03:04:10;;;;;;;30.50;23.50;;;;;;;;;;5071458;28;20195;-45
2022/11/14 03:06:36;;;;;;;30.67;23.40;;;;;;;;;;5071448;28;20655;-45
2022/11/14 03:09:02;;;;;;;32.73;24.70;;;;;;;;;;5071568;28;20216;-45
2022/11/14 03:11:30;;;;;;;32.83;23.40;;;;;;;;;;5071368;28;20200;-45
2022/11/14 03:13:56;;;;;;;31.20;24.10;;;;;;;;;;5071443;28;20548;-45
2022/11/14 03:16:22;;;;;;;30.73;23.23;;;;;;;;;;5071502;28;20205;-45
2022/11/14 03:18:48;;;;;;;31.03;24.10;;;;;;;;;;5071350;28;20917;-45
2022/11/14 03:21:16;;;;;;;31.87;24.37;;;;;;;;;;5071317;28;20294;-45
2022/11/14 03:23:42;;;;;;;32.33;23.50;;;;;;;;;;5071312;28;20199;-45
2022/11/14 03:26:09;;;;;;;34.63;25.57;;;;;;;;;;5071272;28;20665;-45
2022/11/14 03:28:37;;;;;;;29.37;22.93;;;;;;;;;;5071239;28;20298;-45
2022/11/14 03:31:03;;;;;;;33.07;24.87;;;;;;;;;;5071327;28;20219;-45
2022/11/14 03:33:30;;;;;;;31.47;25.03;;;;;;;;;;5071212;28;20258;-44
2022/11/14 03:35:56;;;;;;;29.10;21.77;;;;;;;;;;5071172;28;20207;-45
2022/11/14 03:38:23;;;;;;;31.23;23.77;;;;;;;;;;5071256;28;20207;-45
2022/11/14 03:40:49;;;;;;;31.27;23.43;;;;;;;;;;5074686;28;20191;-45
2022/11/14 03:43:15;;;;;;;31.00;25.60;;;;;;;;;;5074488;28;20207;-45
2022/11/14 03:45:42;;;;;;;31.60;24.30;;;;;;;;;;5075119;28;20336;-45
2022/11/14 03:48:08;;;;;;;32.67;23.93;;;;;;;;;;5074941;28;20500;-45
2022/11/14 03:50:34;;;;;;;32.63;23.73;;;;;;;;;;5074808;28;20283;-45
2022/11/14 03:53:00;;;;;;;31.17;23.50;;;;;;;;;;5074860;28;20614;-45
2022/11/14 03:55:26;;;;;;;30.10;23.10;;;;;;;;;;5074873;28;20199;-45
2022/11/14 03:57:52;;;;;;;30.40;21.93;;;;;;;;;;5074854;28;20196;-45
2022/11/14 04:00:19;;;;;;;30.07;23.20;;;;;;;;;;5074742;28;20208;-45
2022/11/14 04:02:46;;;;;;;32.83;24.43;;;;;;;;;;5074817;28;20657;-45
2022/11/14 04:05:13;;;;;;;28.00;21.67;;;;;;;;;;5074695;28;20198;-45
2022/11/14 04:07:39;;;;;;;26.73;21.53;;;;;;;;;;5074569;28;20227;-45
2022/11/14 04:10:05;;;;;;;31.23;24.00;;;;;;;;;;5073298;28;20217;-45
2022/11/14 04:12:32;;;;;;;32.17;24.77;;;;;;;;;;5074734;28;20203;-45
2022/11/14 04:14:58;;;;;;;30.27;22.80;;;;;;;;;;5073244;28;20235;-45
2022/11/14 04:17:24;;;;;;;31.47;24.33;;;;;;;;;;5074941;28;20449;-45
2022/11/14 04:19:51;;;;;;;33.70;23.87;;;;;;;;;;5074866;28;20199;-45
2022/11/14 04:22:17;;;;;;;34.73;23.33;;;;;;;;;;5074887;28;20286;-45
2022/11/14 04:24:43;;;;;;;34.13;24.30;;;;;;;;;;5074886;28;20211;-46
2022/11/14 04:27:09;;;;;;;29.93;22.10;;;;;;;;;;5074882;28;20294;-45
2022/11/14 04:29:35;;;;;;;34.07;23.57;;;;;;;;;;5074483;28;20219;-45
2022/11/14 04:32:01;;;;;;;32.90;23.70;;;;;;;;;;5074707;28;20468;-45
2022/11/14 04:34:27;;;;;;;32.60;23.40;;;;;;;;;;5074363;28;20215;-45
2022/11/14 04:36:55;;;;;;;30.87;23.17;;;;;;;;;;5074587;28;20450;-45
2022/11/14 04:39:21;;;;;;;27.40;20.77;;;;;;;;;;5074581;28;20312;-45
2022/11/14 04:41:47;;;;;;;29.50;21.33;;;;;;;;;;5072974;28;20650;-45
2022/11/14 04:44:13;;;;;;;32.13;22.20;;;;;;;;;;5073038;28;20442;-45
2022/11/14 04:46:39;;;;;;;30.23;22.60;;;;;;;;;;5073886;28;20294;-45
2022/11/14 04:49:05;;;;;;;33.23;23.40;;;;;;;;;;5074164;28;20539;-45
2022/11/14 04:51:31;;;;;;;27.40;20.33;;;;;;;;;;5073238;28;20202;-45
2022/11/14 04:53:58;;;;;;;34.13;23.97;;;;;;;;;;5074240;28;20227;-45
2022/11/14 04:56:24;;;;;;;32.90;23.83;;;;;;;;;;5074045;28;20203;-45
2022/11/14 04:58:51;;;;;;;32.23;23.33;;;;;;;;;;5074180;28;20249;-45
2022/11/14 05:01:17;;;;;;;37.17;24.17;;;;;;;;;;5074171;28;20204;-45
2022/11/14 05:03:43;;;;;;;36.57;23.87;;;;;;;;;;5073953;28;20203;-45
2022/11/14 05:06:09;;;;;;;31.47;23.13;;;;;;;;;;5073959;28;20426;-45
2022/11/14 05:08:35;;;;;;;32.07;23.50;;;;;;;;;;5073925;28;20222;-45
2022/11/14 05:11:03;;;;;;;34.53;23.60;;;;;;;;;;5072480;28;20241;-45
2022/11/14 05:13:29;;;;;;;32.50;23.90;;;;;;;;;;5073719;28;20527;-45
2022/11/14 05:15:57;;;;;;;33.77;24.53;;;;;;;;;;5074110;28;20202;-45
2022/11/14 05:18:23;;;;;;;40.93;25.20;;;;;;;;;;5073802;28;20206;-45
2022/11/14 05:20:49;;;;;;;35.17;24.47;;;;;;;;;;5073883;28;20422;-45
2022/11/14 05:23:19;;;;;;;37.40;25.03;;;;;;;;;;5073840;28;20445;-45
2022/11/14 05:25:45;;;;;;;35.13;24.67;;;;;;;;;;5073679;28;20487;-45
2022/11/14 05:28:12;;;;;;;32.80;23.83;;;;;;;;;;5073566;28;20200;-45
2022/11/14 05:30:38;;;;;;;34.83;23.73;;;;;;;;;;5073517;28;20525;-45
2022/11/14 05:33:04;;;;;;;36.60;25.33;;;;;;;;;;5073432;28;20932;-45
2022/11/14 05:35:30;;;;;;;37.97;25.03;;;;;;;;;;5073335;28;20442;-45
2022/11/14 05:37:56;;;;;;;35.20;25.17;;;;;;;;;;5073589;28;20195;-45
2022/11/14 05:40:22;;;;;;;31.63;24.13;;;;;;;;;;5073416;28;20282;-46
2022/11/14 05:42:48;;;;;;;31.73;22.87;;;;;;;;;;5073402;28;20213;-45
2022/11/14 05:45:16;;;;;;;34.70;23.70;;;;;;;;;;5073232;28;20463;-45
2022/11/14 05:47:42;;;;;;;35.97;24.67;;;;;;;;;;5072122;28;20276;-45
2022/11/14 05:50:08;;;;;;;34.43;24.83;;;;;;;;;;5072842;28;20215;-45
2022/11/14 05:52:34;;;;;;;39.40;25.90;;;;;;;;;;5073033;28;20199;-45
2022/11/14 05:55:00;;;;;;;37.60;26.13;;;;;;;;;;5071916;28;20216;-45
2022/11/14 05:57:26;;;;;;;36.30;24.47;;;;;;;;;;5073083;28;20426;-45
2022/11/14 05:59:52;;;;;;;36.33;25.90;;;;;;;;;;5073108;28;20441;-45
2022/11/14 06:02:20;;;;;;;40.27;26.97;;;;;;;;;;5072882;28;20219;-45
2022/11/14 06:04:46;;;;;;;39.17;26.57;;;;;;;;;;5072815;28;20470;-45
2022/11/14 06:07:12;;;;;;;39.40;25.93;;;;;;;;;;5072997;28;20195;-45
2022/11/14 06:09:38;;;;;;;40.63;26.97;;;;;;;;;;5070872;28;20224;-45
2022/11/14 06:12:06;;;;;;;41.00;27.37;;;;;;;;;;5072134;28;20426;-46
2022/11/14 06:14:32;;;;;;;36.80;25.47;;;;;;;;;;5071398;28;20522;-45
2022/11/14 06:16:58;;;;;;;43.83;27.90;;;;;;;;;;5072239;28;20211;-45
2022/11/14 06:19:26;;;;;;;43.23;27.93;;;;;;;;;;5071266;28;20434;-46
2022/11/14 06:21:52;;;;;;;44.27;27.77;;;;;;;;;;5072380;28;20525;-45
2022/11/14 06:24:18;;;;;;;45.87;29.73;;;;;;;;;;5072239;28;20630;-46
2022/11/14 06:26:44;;;;;;;43.90;29.10;;;;;;;;;;5072393;28;20434;-46
2022/11/14 06:29:10;;;;;;;40.67;27.77;;;;;;;;;;5072723;28;20430;-47
2022/11/14 06:31:36;;;;;;;44.23;28.87;;;;;;;;;;5072251;28;20450;-44
2022/11/14 06:34:05;;;;;;;44.43;28.93;;;;;;;;;;5071796;28;21022;-45
2022/11/14 06:36:32;;;;;;;47.07;29.47;;;;;;;;;;5072069;28;20298;-44
2022/11/14 06:38:58;;;;;;;47.30;28.87;;;;;;;;;;5072096;28;20461;-45
2022/11/14 06:41:24;;;;;;;41.63;27.70;;;;;;;;;;5071941;28;20495;-45
2022/11/14 06:43:54;;;;;;;41.50;28.00;;;;;;;;;;5072206;28;20434;-45
2022/11/14 06:46:21;;;;;;;45.07;27.50;;;;;;;;;;5071636;28;20448;-45
2022/11/14 06:48:48;;;;;;;42.90;27.73;;;;;;;;;;5069220;28;21051;-46
2022/11/14 06:51:14;;;;;;;43.27;27.47;;;;;;;;;;5071981;28;20602;-46
2022/11/14 06:53:42;;;;;;;40.47;26.60;;;;;;;;;;5070654;28;20231;-46
2022/11/14 06:56:09;;;;;;;41.73;27.03;;;;;;;;;;5072074;28;20610;-46
2022/11/14 06:58:37;;;;;;;44.93;28.23;;;;;;;;;;5071074;28;20211;-46
2022/11/14 07:01:04;;;;;;;41.97;28.33;;;;;;;;;;5071952;28;20434;-46
2022/11/14 07:03:30;;;;;;;38.93;26.47;;;;;;;;;;5071696;28;20196;-46
2022/11/14 07:05:57;;;;;;;41.97;28.30;;;;;;;;;;5071998;28;20437;-46
2022/11/14 07:08:23;;;;;;;40.70;26.90;;;;;;;;;;5071899;28;20302;-46
2022/11/14 07:10:53;;;;;;;40.40;28.20;;;;;;;;;;5071305;28;20282;-46
2022/11/14 07:13:19;;;;;;;41.00;28.00;;;;;;;;;;5068405;28;20203;-46
2022/11/14 07:15:51;;;;;;;41.07;28.40;;;;;;;;;;5071203;28;20203;-46
2022/11/14 07:18:18;;;;;;;40.07;28.00;;;;;;;;;;5069878;28;20222;-46
2022/11/14 07:20:44;;;;;;;41.33;27.70;;;;;;;;;;5068634;28;20203;-45
2022/11/14 07:23:10;;;;;;;42.80;27.57;;;;;;;;;;5070203;28;20920;-46
2022/11/14 07:25:36;;;;;;;40.20;26.97;;;;;;;;;;5071071;28;20234;-46
2022/11/14 07:28:03;;;;;;;39.13;27.00;;;;;;;;;;5071735;28;20466;-46
2022/11/14 07:30:29;;;;;;;38.27;25.60;;;;;;;;;;5071604;28;20324;-46
2022/11/14 07:32:55;;;;;;;37.23;25.57;;;;;;;;;;5071624;28;20551;-46
2022/11/14 07:35:21;;;;;;;39.93;26.30;;;;;;;;;;5071273;28;20568;-47
2022/11/14 07:37:47;;;;;;;36.50;25.87;;;;;;;;;;5070218;28;20485;-46
2022/11/14 07:40:13;;;;;;;42.00;27.27;;;;;;;;;;5071277;28;20213;-46
2022/11/14 07:42:39;;;;;;;36.23;26.30;;;;;;;;;;5070733;28;20201;-46
2022/11/14 07:45:11;;;;;;;37.57;24.97;;;;;;;;;;5071613;28;20187;-45
2022/11/14 07:47:37;;;;;;;40.00;26.47;;;;;;;;;;5071472;28;20196;-46
2022/11/14 07:50:03;;;;;;;39.07;27.07;;;;;;;;;;5071587;28;20203;-46
2022/11/14 07:52:30;;;;;;;37.43;26.20;;;;;;;;;;5071394;28;20735;-50
2022/11/14 07:54:56;;;;;;;42.80;27.70;;;;;;;;;;5070586;28;20530;-46
2022/11/14 07:57:22;;;;;;;40.33;27.07;;;;;;;;;;5070989;28;20203;-46
2022/11/14 07:59:48;;;;;;;38.83;25.10;;;;;;;;;;5071441;28;20537;-46
2022/11/14 08:02:15;;;;;;;38.07;26.37;;;;;;;;;;5071548;28;20451;-45
2022/11/14 08:04:41;;;;;;;41.20;26.20;;;;;;;;;;5070970;28;20540;-46
2022/11/14 08:07:07;;;;;;;37.20;25.00;;;;;;;;;;5071208;28;20471;-45
2022/11/14 08:09:33;;;;;;;36.20;24.60;;;;;;;;;;5070382;28;20476;-46
2022/11/14 08:11:59;;;;;;;39.67;26.07;;;;;;;;;;5068107;28;20457;-45
2022/11/14 08:14:25;;;;;;;43.37;26.87;;;;;;;;;;5070450;28;20474;-45
2022/11/14 08:16:51;;;;;;;40.57;25.73;;;;;;;;;;5071228;28;20425;-45
2022/11/14 08:19:19;;;;;;;37.53;25.97;;;;;;;;;;5070760;28;20437;-44
2022/11/14 08:21:45;;;;;;;37.97;26.70;;;;;;;;;;5070212;28;20607;-45
2022/11/14 08:24:11;;;;;;;39.03;26.93;;;;;;;;;;5070297;28;20986;-45
2022/11/14 08:26:38;;;;;;;42.07;26.63;;;;;;;;;;5072097;28;20473;-45
2022/11/14 08:29:04;;;;;;;40.93;27.97;;;;;;;;;;5074484;28;20275;-45
2022/11/14 08:31:30;;;;;;;40.87;27.23;;;;;;;;;;5074519;28;20516;-45
2022/11/14 08:33:56;;;;;;;43.00;27.30;;;;;;;;;;5071901;28;20250;-45
2022/11/14 08:36:24;;;;;;;41.47;26.93;;;;;;;;;;5074605;28;20621;-46
2022/11/14 08:38:50;;;;;;;40.43;26.43;;;;;;;;;;5074480;28;20429;-46
2022/11/14 08:41:16;;;;;;;43.43;28.67;;;;;;;;;;5074570;28;20269;-45
2022/11/14 08:43:42;;;;;;;37.80;26.17;;;;;;;;;;5074385;28;20607;-45
2022/11/14 08:46:09;;;;;;;42.07;27.60;;;;;;;;;;5074281;28;20434;-46
2022/11/14 08:48:35;;;;;;;38.83;27.57;;;;;;;;;;5074028;28;20830;-44
2022/11/14 08:51:04;;;;;;;39.50;26.40;;;;;;;;;;5074047;28;20199;-45
2022/11/14 08:53:32;;;;;;;40.67;27.67;;;;;;;;;;5074019;28;20283;-46
2022/11/14 08:55:59;;;;;;;40.80;27.43;;;;;;;;;;5072338;28;20218;-45
2022/11/14 08:58:27;;;;;;;42.80;27.97;;;;;;;;;;5074132;28;20503;-46
2022/11/14 09:00:53;;;;;;;37.97;25.97;;;;;;;;;;5074014;28;20446;-45
2022/11/14 09:03:19;;;;;;;41.20;27.47;;;;;;;;;;5071902;28;20462;-46
2022/11/14 09:05:50;;;;;;;38.13;26.40;;;;;;;;;;5072432;28;20219;-45
2022/11/14 09:08:16;;;;;;;39.10;26.57;;;;;;;;;;5073743;28;20219;-45
2022/11/14 09:10:44;;;;;;;43.73;27.97;;;;;;;;;;5071814;28;20944;-46
2022/11/14 09:13:10;;;;;;;37.27;26.27;;;;;;;;;;5073308;28;20612;-45
2022/11/14 09:15:36;;;;;;;36.60;25.67;;;;;;;;;;5072406;28;20322;-45
2022/11/14 09:18:02;;;;;;;39.67;25.57;;;;;;;;;;5072796;28;20249;-45
2022/11/14 09:20:29;;;;;;;36.50;25.40;;;;;;;;;;5073245;28;20460;-45
2022/11/14 09:22:57;;;;;;;41.53;25.97;;;;;;;;;;5072514;28;20204;-44
2022/11/14 09:25:25;;;;;;;37.50;23.87;;;;;;;;;;5072917;28;20266;-46
2022/11/14 09:27:52;;;;;;;37.07;24.83;;;;;;;;;;5073359;28;20222;-46
2022/11/14 09:30:18;;;;;;;40.07;26.10;;;;;;;;;;5073513;28;20223;-45
2022/11/14 09:32:44;;;;;;;42.07;26.67;;;;;;;;;;5073267;28;20492;-46
2022/11/14 09:35:11;;;;;;;42.47;27.73;;;;;;;;;;5072776;28;20239;-45
2022/11/14 09:37:37;;;;;;;39.23;26.53;;;;;;;;;;5072567;28;20426;-46
2022/11/14 09:40:04;;;;;;;43.60;28.00;;;;;;;;;;5073036;28;20203;-45
2022/11/14 09:42:40;;;;;;;41.53;28.77;;;;;;;;;;5072963;28;20207;-45
2022/11/14 09:45:11;;;;;;;41.03;30.43;;;;;;;;;;5073056;28;20516;-45
2022/11/14 09:47:40;;;;;;;40.00;25.87;;;;;;;;;;5072347;28;20282;-45
2022/11/14 09:50:10;;;;;;;39.47;26.63;;;;;;;;;;5072810;28;21015;-45
2022/11/14 09:52:37;;;;;;;41.33;28.17;;;;;;;;;;5072739;28;20516;-45
2022/11/14 09:55:09;;;;;;;39.33;27.13;;;;;;;;;;5072711;28;20223;-44
2022/11/14 09:57:35;;;;;;;40.73;26.37;;;;;;;;;;5072759;28;20430;-46
2022/11/14 10:00:02;;;;;;;37.90;26.20;;;;;;;;;;5072725;28;20966;-44
2022/11/14 10:02:37;;;;;;;39.40;26.97;;;;;;;;;;5072459;28;20487;-46
2022/11/14 10:05:09;;;;;;;35.53;23.87;;;;;;;;;;5072622;28;20662;-45
2022/11/14 10:07:42;;;;;;;40.40;25.43;;;;;;;;;;5072487;28;20202;-45
2022/11/14 10:10:13;;;;;;;36.03;24.40;;;;;;;;;;5072552;28;20203;-45
2022/11/14 10:12:43;;;;;;;37.40;26.07;;;;;;;;;;5072236;28;20613;-45
2022/11/14 10:15:12;;;;;;;35.50;25.10;;;;;;;;;;5069864;28;20258;-45
2022/11/14 10:17:58;;;;;;;37.40;26.43;;;;;;;;;;5071152;28;20227;-44
2022/11/14 10:20:28;;;;;;;41.13;26.37;;;;;;;;;;5072384;28;20202;-45
2022/11/14 10:23:04;;;;;;;39.10;25.87;;;;;;;;;;5072290;28;20235;-45
2022/11/14 10:25:37;;;;;;;37.80;24.83;;;;;;;;;;5070444;28;20699;-45
2022/11/14 10:28:10;;;;;;;37.43;25.20;;;;;;;;;;5072343;28;20200;-45
2022/11/14 10:30:40;;;;;;;37.60;24.70;;;;;;;;;;5072118;28;20191;-44
2022/11/14 10:33:13;;;;;;;36.87;25.93;;;;;;;;;;5072199;28;20203;-45
2022/11/14 10:35:40;;;;;;;31.73;23.60;;;;;;;;;;5072061;28;20251;-45
2022/11/14 10:38:10;;;;;;;34.70;22.83;;;;;;;;;;5072097;28;20202;-45
2022/11/14 10:40:38;;;;;;;32.27;23.73;;;;;;;;;;5072162;28;20638;-45
2022/11/14 10:43:06;;;;;;;32.13;23.33;;;;;;;;;;5071943;28;20203;-45
2022/11/14 10:45:35;;;;;;;31.47;22.83;;;;;;;;;;5070416;28;20222;-45
2022/11/14 10:48:03;;;;;;;28.93;21.47;;;;;;;;;;5071371;28;20773;-44
2022/11/14 10:50:36;;;;;;;32.13;23.03;;;;;;;;;;5071351;28;20197;-45
2022/11/14 10:53:04;;;;;;;32.93;24.87;;;;;;;;;;5070836;28;20203;-45
2022/11/14 10:55:30;;;;;;;30.97;22.50;;;;;;;;;;5070526;28;20237;-45
2022/11/14 10:57:56;;;;;;;29.93;21.73;;;;;;;;;;5071990;28;20600;-45
2022/11/14 11:00:23;;;;;;;29.47;21.80;;;;;;;;;;5071953;28;20245;-45
2022/11/14 11:02:50;;;;;;;29.37;21.23;;;;;;;;;;5071565;28;20560;-45
2022/11/14 11:05:18;;;;;;;30.80;20.90;;;;;;;;;;5071755;28;20198;-45
2022/11/14 11:13:29;;;;;;;29.47;20.67;;;;;;;;;;5071878;28;20273;-46
2022/11/14 11:15:57;;;;;;;28.17;20.80;;;;;;;;;;5071291;28;20226;-46
2022/11/14 11:18:25;;;;;;;24.63;19.83;;;;;;;;;;5070550;28;20222;-45
2022/11/14 11:21:01;;;;;;;24.97;19.80;;;;;;;;;;5071625;28;20733;-46
2022/11/14 11:23:29;;;;;;;26.53;19.70;;;;;;;;;;5071650;28;20332;-45
2022/11/14 11:25:58;;;;;;;26.23;20.67;;;;;;;;;;5071730;28;20223;-46
2022/11/14 11:28:24;;;;;;;23.40;18.17;;;;;;;;;;5071387;28;20206;-44
2022/11/14 11:30:55;;;;;;;24.97;19.73;;;;;;;;;;5071651;28;20195;-46
2022/11/14 11:33:23;;;;;;;24.63;19.43;;;;;;;;;;5071431;28;20203;-45
2022/11/14 11:35:49;;;;;;;27.40;19.80;;;;;;;;;;5071107;28;20503;-45
2022/11/14 11:38:16;;;;;;;26.23;19.30;;;;;;;;;;5071271;28;20199;-45
2022/11/14 11:40:46;;;;;;;25.00;19.33;;;;;;;;;;5071210;28;20245;-45
2022/11/14 11:43:15;;;;;;;24.43;19.87;;;;;;;;;;5071528;28;20278;-45
2022/11/14 11:45:43;;;;;;;23.77;18.30;;;;;;;;;;5071195;28;20402;-46
2022/11/14 11:48:13;;;;;;;24.00;18.40;;;;;;;;;;5071278;28;20310;-46
2022/11/14 11:50:39;;;;;;;25.23;19.63;;;;;;;;;;5071300;28;20281;-46
2022/11/14 11:53:12;;;;;;;23.27;18.47;;;;;;;;;;5071330;28;20246;-46
2022/11/14 11:55:41;;;;;;;26.37;19.47;;;;;;;;;;5071191;28;20220;-46
2022/11/14 11:58:14;;;;;;;25.23;19.03;;;;;;;;;;5069143;28;20204;-46
2022/11/14 12:00:40;;;;;;;22.50;17.47;;;;;;;;;;5072818;28;20611;-46
2022/11/14 12:03:11;;;;;;;49.17;32.90;;;;;;;;;;5074494;28;20557;-46
2022/11/14 12:05:41;;;;;;;23.93;19.40;;;;;;;;;;5074360;28;20196;-46
2022/11/14 12:08:14;;;;;;;26.00;19.53;;;;;;;;;;5074469;28;20595;-46
2022/11/14 12:10:41;;;;;;;21.43;17.33;;;;;;;;;;5073984;28;20638;-45
2022/11/14 12:13:22;;;;;;;21.53;17.90;;;;;;;;;;5074375;28;20542;-45
2022/11/14 12:15:56;;;;;;;23.37;17.83;;;;;;;;;;5071943;28;20234;-46
2022/11/14 12:18:30;;;;;;;23.30;19.53;;;;;;;;;;5071845;28;20561;-46
2022/11/14 12:21:04;;;;;;;25.27;19.77;;;;;;;;;;5073336;28;20223;-46
2022/11/14 12:23:43;;;;;;;25.50;20.90;;;;;;;;;;5067210;28;20253;-46
2022/11/14 12:26:20;;;;;;;25.93;19.97;;;;;;;;;;5073882;28;20203;-47
2022/11/14 12:28:58;;;;;;;25.30;19.67;;;;;;;;;;5073296;28;20286;-47
2022/11/14 12:31:27;;;;;;;26.03;19.83;;;;;;;;;;5073616;28;20561;-47
2022/11/14 12:33:57;;;;;;;22.87;18.70;;;;;;;;;;5072514;28;20302;-46
2022/11/14 12:36:27;;;;;;;21.53;17.87;;;;;;;;;;5072782;28;20204;-46
2022/11/14 12:38:54;;;;;;;25.93;19.93;;;;;;;;;;5073231;28;20252;-47
2022/11/14 12:41:22;;;;;;;22.77;18.97;;;;;;;;;;5073073;28;20212;-46
2022/11/14 12:43:48;;;;;;;23.93;17.67;;;;;;;;;;5073085;28;20260;-46
2022/11/14 12:46:14;;;;;;;22.13;18.17;;;;;;;;;;5073141;28;20196;-46
2022/11/14 12:48:42;;;;;;;20.77;17.53;;;;;;;;;;5072619;28;20231;-46
2022/11/14 12:51:23;;;;;;;19.40;17.23;;;;;;;;;;5073586;28;20287;-46
2022/11/14 12:53:49;;;;;;;22.30;17.60;;;;;;;;;;5072418;28;20203;-46
2022/11/14 12:56:19;;;;;;;22.90;18.57;;;;;;;;;;5073320;28;20221;-46
2022/11/14 12:59:02;;;;;;;22.13;17.23;;;;;;;;;;5073457;28;20257;-46
2022/11/14 13:01:46;;;;;;;24.33;17.67;;;;;;;;;;5073235;28;20191;-46
2022/11/14 13:04:27;;;;;;;22.43;17.57;;;;;;;;;;5073017;28;20198;-45
2022/11/14 13:06:59;;;;;;;22.43;18.47;;;;;;;;;;5072238;28;20735;-45
2022/11/14 13:09:33;;;;;;;25.37;20.53;;;;;;;;;;5072340;28;20777;-46
2022/11/14 13:23:56;;;;;;;21.23;17.90;;;;;;;;;;5072528;28;20222;-46
2022/11/14 13:26:35;;;;;;;20.60;16.17;;;;;;;;;;5072914;28;20195;-46
2022/11/14 13:29:01;;;;;;;19.87;15.83;;;;;;;;;;5072468;28;20615;-46
2022/11/14 13:31:42;;;;;;;20.43;16.30;;;;;;;;;;5072260;28;20195;-46
2022/11/14 13:34:27;;;;;;;21.87;16.67;;;;;;;;;;5071597;28;20619;-46
2022/11/14 13:36:58;;;;;;;22.23;17.20;;;;;;;;;;5072044;28;20188;-46
2022/11/14 13:39:28;;;;;;;19.50;15.83;;;;;;;;;;5072249;28;20207;-47
2022/11/14 13:42:12;;;;;;;20.23;17.00;;;;;;;;;;5072047;28;20515;-47
2022/11/14 13:45:02;;;;;;;19.53;16.00;;;;;;;;;;5072111;28;20199;-46
2022/11/14 13:47:36;;;;;;;20.30;15.83;;;;;;;;;;5056136;28;20734;-47
2022/11/14 13:50:05;;;;;;;22.57;16.63;;;;;;;;;;5071909;28;20235;-47
2022/11/14 13:52:33;;;;;;;19.47;16.50;;;;;;;;;;5069471;28;20196;-46
2022/11/14 13:54:59;;;;;;;17.90;15.70;;;;;;;;;;5070770;28;20306;-46
2022/11/14 13:57:31;;;;;;;20.30;16.23;;;;;;;;;;5071992;28;20654;-45
2022/11/14 14:00:11;;;;;;;19.40;16.13;;;;;;;;;;5071731;28;20619;-46
2022/11/14 14:02:52;;;;;;;19.27;15.30;;;;;;;;;;5072295;28;20195;-46
2022/11/14 14:05:24;;;;;;;19.40;15.20;;;;;;;;;;5070891;28;20276;-46
2022/11/14 14:07:57;;;;;;;19.50;15.80;;;;;;;;;;5071851;28;20194;-46
2022/11/14 14:10:26;;;;;;;20.60;16.63;;;;;;;;;;5072141;28;20732;-46
2022/11/14 14:12:59;;;;;;;19.00;15.27;;;;;;;;;;5072012;28;20290;-46
2022/11/14 14:15:28;;;;;;;19.53;15.83;;;;;;;;;;5072217;28;20227;-46
2022/11/14 14:17:58;;;;;;;19.57;15.97;;;;;;;;;;5071419;28;20764;-46
2022/11/14 14:20:30;;;;;;;20.27;16.27;;;;;;;;;;5071464;28;20200;-46
2022/11/14 14:23:01;;;;;;;20.13;15.03;;;;;;;;;;5071369;28;20196;-46
2022/11/14 14:25:31;;;;;;;18.13;16.03;;;;;;;;;;5071896;28;20230;-46
2022/11/14 14:28:02;;;;;;;16.73;14.93;;;;;;;;;;5071820;28;20306;-46
2022/11/14 14:30:28;;;;;;;18.00;15.10;;;;;;;;;;5072066;28;20195;-46
2022/11/14 14:33:10;;;;;;;20.70;16.13;;;;;;;;;;5071891;28;20202;-46
2022/11/14 14:35:38;;;;;;;23.77;16.80;;;;;;;;;;5071376;28;20231;-46
2022/11/14 14:38:09;;;;;;;18.37;15.33;;;;;;;;;;5071610;28;20520;-46